Time;durP1;ratioP1;P1;durP2;ratioP2;P2;SDS_P1;SDS_P2;PMS_P1;PMS_P2;Temp;Humidity;BMP_temperature;BMP_pressure;BME280_temperature;BME280_humidity;BME280_pressure;Samples;Min_cycle;Max_cycle;Signal;HPM_P1;HPM_P2
2023/12/22 00:00:47;;;;;;;18.60;4.93;;;;;;;;;;5044465;28;20124;-76
2023/12/22 00:03:15;;;;;;;16.67;4.00;;;;;;;;;;5042404;28;20049;-76
2023/12/22 00:05:41;;;;;;;20.63;4.38;;;;;;;;;;5047797;28;20504;-76
2023/12/22 00:08:07;;;;;;;19.75;5.20;;;;;;;;;;5030909;28;20133;-76
2023/12/22 00:10:33;;;;;;;19.10;5.72;;;;;;;;;;5042106;28;20053;-76
2023/12/22 00:12:59;;;;;;;19.15;4.40;;;;;;;;;;5021779;28;20038;-76
2023/12/22 00:15:25;;;;;;;19.27;4.75;;;;;;;;;;5042257;28;20040;-76
2023/12/22 00:17:54;;;;;;;16.15;3.75;;;;;;;;;;5022971;28;20044;-76
2023/12/22 00:20:20;;;;;;;15.10;4.60;;;;;;;;;;5037586;28;20413;-76
2023/12/22 00:22:46;;;;;;;19.80;4.65;;;;;;;;;;5041169;28;20555;-76
2023/12/22 00:25:12;;;;;;;16.48;4.95;;;;;;;;;;5040004;28;20041;-76
2023/12/22 00:27:38;;;;;;;15.02;3.90;;;;;;;;;;5026226;28;20057;-76
2023/12/22 00:30:04;;;;;;;18.23;4.25;;;;;;;;;;5043275;28;20037;-75
2023/12/22 00:32:30;;;;;;;20.23;4.43;;;;;;;;;;5021705;28;20049;-76
2023/12/22 00:34:58;;;;;;;17.90;4.22;;;;;;;;;;5040520;28;20045;-76
2023/12/22 00:37:24;;;;;;;24.33;4.93;;;;;;;;;;5041687;28;20472;-75
2023/12/22 00:39:50;;;;;;;23.02;5.75;;;;;;;;;;5022744;28;20037;-76
2023/12/22 00:42:16;;;;;;;20.67;5.20;;;;;;;;;;5046103;28;20154;-76
2023/12/22 00:44:42;;;;;;;16.13;4.38;;;;;;;;;;5023363;28;20049;-75
2023/12/22 00:47:08;;;;;;;15.93;5.32;;;;;;;;;;5021819;28;20147;-76
2023/12/22 00:49:34;;;;;;;22.98;5.28;;;;;;;;;;5028211;28;20123;-76
2023/12/22 00:52:00;;;;;;;18.67;4.80;;;;;;;;;;5029239;28;20496;-75
2023/12/22 00:54:27;;;;;;;20.35;4.70;;;;;;;;;;5022612;28;20064;-76
2023/12/22 00:56:53;;;;;;;12.88;3.35;;;;;;;;;;5031422;28;20500;-76
2023/12/22 00:59:19;;;;;;;12.80;4.32;;;;;;;;;;5027324;28;20068;-75
2023/12/22 01:01:45;;;;;;;22.42;4.72;;;;;;;;;;5042484;28;20043;-76
2023/12/22 01:04:11;;;;;;;17.17;4.32;;;;;;;;;;5031063;28;20118;-76
2023/12/22 01:06:40;;;;;;;16.90;4.00;;;;;;;;;;5050317;28;20040;-76
2023/12/22 01:09:06;;;;;;;26.55;4.80;;;;;;;;;;5033057;28;20103;-76
2023/12/22 01:11:32;;;;;;;14.43;3.53;;;;;;;;;;5028182;28;20044;-76
2023/12/22 01:13:58;;;;;;;17.95;4.13;;;;;;;;;;5041557;28;20554;-76
2023/12/22 01:16:24;;;;;;;17.05;4.28;;;;;;;;;;5046388;28;20416;-76
2023/12/22 01:18:50;;;;;;;14.60;4.63;;;;;;;;;;5049378;28;20056;-76
2023/12/22 01:21:19;;;;;;;15.23;4.28;;;;;;;;;;5046642;28;20091;-75
2023/12/22 01:23:45;;;;;;;15.70;5.15;;;;;;;;;;5031250;28;20057;-76
2023/12/22 01:26:11;;;;;;;15.07;3.80;;;;;;;;;;5032054;28;20037;-75
2023/12/22 01:28:37;;;;;;;13.48;4.22;;;;;;;;;;5048571;28;20050;-76
2023/12/22 01:31:03;;;;;;;15.52;4.40;;;;;;;;;;5028898;28;20128;-76
2023/12/22 01:33:29;;;;;;;18.45;3.92;;;;;;;;;;5026374;28;20045;-77
2023/12/22 01:35:58;;;;;;;15.38;4.80;;;;;;;;;;5048887;28;20040;-75
2023/12/22 01:38:24;;;;;;;14.43;4.60;;;;;;;;;;5048217;28;20047;-75
2023/12/22 01:40:50;;;;;;;13.18;3.47;;;;;;;;;;5029978;28;20059;-75
2023/12/22 01:43:21;;;;;;;24.17;5.55;;;;;;;;;;5030975;28;20049;-76
2023/12/22 01:45:47;;;;;;;29.77;5.90;;;;;;;;;;5043215;28;20057;-76
2023/12/22 01:48:13;;;;;;;14.48;3.17;;;;;;;;;;5019939;28;20046;-76
2023/12/22 01:50:40;;;;;;;14.68;2.97;;;;;;;;;;5029714;28;20044;-76
2023/12/22 01:53:06;;;;;;;18.30;4.80;;;;;;;;;;5046526;28;20106;-76
2023/12/22 01:55:32;;;;;;;15.82;3.85;;;;;;;;;;5025169;28;20098;-75
2023/12/22 01:57:58;;;;;;;17.58;3.55;;;;;;;;;;5028455;28;20046;-76
2023/12/22 02:00:24;;;;;;;16.08;3.97;;;;;;;;;;5046835;28;20080;-76
2023/12/22 02:02:53;;;;;;;18.30;4.93;;;;;;;;;;5044702;28;20056;-75
2023/12/22 02:05:19;;;;;;;17.33;5.22;;;;;;;;;;5028458;28;20044;-76
2023/12/22 02:07:46;;;;;;;16.98;5.05;;;;;;;;;;5042999;28;20041;-76
2023/12/22 02:10:12;;;;;;;18.98;4.78;;;;;;;;;;5047991;28;20036;-75
2023/12/22 02:12:38;;;;;;;19.15;5.30;;;;;;;;;;5027588;28;20390;-76
2023/12/22 02:15:05;;;;;;;15.65;3.53;;;;;;;;;;5021013;28;20528;-76
2023/12/22 02:17:42;;;;;;;18.90;3.78;;;;;;;;;;5027681;28;20090;-76
2023/12/22 02:20:08;;;;;;;14.73;3.00;;;;;;;;;;5040090;28;20045;-76
2023/12/22 02:22:34;;;;;;;10.73;3.13;;;;;;;;;;5046638;28;20056;-76
2023/12/22 02:25:00;;;;;;;11.60;3.55;;;;;;;;;;5030028;28;20475;-76
2023/12/22 02:27:41;;;;;;;12.55;3.35;;;;;;;;;;5028829;28;21119;-76
2023/12/22 02:30:15;;;;;;;11.75;3.38;;;;;;;;;;5027121;28;20067;-76
2023/12/22 02:32:43;;;;;;;20.95;3.80;;;;;;;;;;5024208;28;20048;-76
2023/12/22 02:35:14;;;;;;;11.73;4.22;;;;;;;;;;5030245;28;20040;-76
2023/12/22 02:37:41;;;;;;;15.35;4.10;;;;;;;;;;5026932;28;20124;-76
2023/12/22 02:40:09;;;;;;;9.43;3.03;;;;;;;;;;5027640;28;20106;-76
2023/12/22 02:42:36;;;;;;;11.57;3.28;;;;;;;;;;5044423;28;20048;-76
2023/12/22 02:45:03;;;;;;;16.15;4.65;;;;;;;;;;5027110;28;20033;-76
2023/12/22 02:47:29;;;;;;;13.50;3.67;;;;;;;;;;5047308;28;20447;-76
2023/12/22 02:49:55;;;;;;;17.50;4.05;;;;;;;;;;5045993;28;20048;-76
2023/12/22 02:52:21;;;;;;;15.02;3.90;;;;;;;;;;5044601;28;20456;-76
2023/12/22 02:54:47;;;;;;;19.13;3.72;;;;;;;;;;5023969;28;20045;-76
2023/12/22 02:57:13;;;;;;;14.20;3.72;;;;;;;;;;5043324;28;20508;-76
2023/12/22 02:59:39;;;;;;;21.48;4.93;;;;;;;;;;5052226;22;20045;-76
2023/12/22 03:02:07;;;;;;;17.55;4.45;;;;;;;;;;4989992;28;20161;-76
2023/12/22 03:04:33;;;;;;;19.95;4.25;;;;;;;;;;5014853;28;20099;-77
2023/12/22 03:06:59;;;;;;;23.50;4.47;;;;;;;;;;4998544;28;20498;-76
2023/12/22 03:09:26;;;;;;;13.45;4.28;;;;;;;;;;4999569;28;20037;-76
2023/12/22 03:11:54;;;;;;;13.00;3.53;;;;;;;;;;4995250;28;20497;-76
2023/12/22 03:14:20;;;;;;;16.25;4.30;;;;;;;;;;5017678;28;20124;-76
2023/12/22 03:16:46;;;;;;;15.30;3.70;;;;;;;;;;5010657;28;20112;-76
2023/12/22 03:19:12;;;;;;;13.88;3.22;;;;;;;;;;5014401;28;20782;-76
2023/12/22 03:21:38;;;;;;;11.60;3.30;;;;;;;;;;5017730;28;20045;-76
2023/12/22 03:24:04;;;;;;;17.27;4.35;;;;;;;;;;5014101;28;20058;-76
2023/12/22 03:26:30;;;;;;;13.55;4.15;;;;;;;;;;5012048;28;20038;-76
2023/12/22 03:28:56;;;;;;;12.82;3.80;;;;;;;;;;4995059;28;20129;-76
2023/12/22 03:31:22;;;;;;;10.32;3.65;;;;;;;;;;4993556;28;20137;-76
2023/12/22 03:33:48;;;;;;;15.98;4.10;;;;;;;;;;5001929;28;20160;-76
2023/12/22 03:36:16;;;;;;;16.10;4.13;;;;;;;;;;5016087;28;20061;-76
2023/12/22 03:38:42;;;;;;;19.38;5.28;;;;;;;;;;5003668;28;20041;-76
2023/12/22 03:41:08;;;;;;;17.92;4.18;;;;;;;;;;4999355;28;20107;-75
2023/12/22 03:43:34;;;;;;;15.45;4.65;;;;;;;;;;5017571;28;20050;-76
2023/12/22 03:46:00;;;;;;;16.65;4.15;;;;;;;;;;5019704;28;20080;-75
2023/12/22 03:48:26;;;;;;;12.27;4.47;;;;;;;;;;5004386;28;20084;-76
2023/12/22 03:50:52;;;;;;;17.33;3.97;;;;;;;;;;5012552;23;20046;-76
2023/12/22 03:53:18;;;;;;;19.27;4.85;;;;;;;;;;5023877;28;20053;-76
2023/12/22 03:55:44;;;;;;;25.92;4.93;;;;;;;;;;5021721;28;20119;-76
2023/12/22 03:58:10;;;;;;;14.98;4.18;;;;;;;;;;5003713;28;20085;-76
2023/12/22 04:00:36;;;;;;;19.42;5.15;;;;;;;;;;5021431;28;20038;-76
2023/12/22 04:03:02;;;;;;;19.00;4.22;;;;;;;;;;5006174;28;20167;-76
2023/12/22 04:05:29;;;;;;;21.00;4.28;;;;;;;;;;5004321;28;20041;-76
2023/12/22 04:07:55;;;;;;;12.55;3.95;;;;;;;;;;5009053;28;20055;-76
2023/12/22 04:10:21;;;;;;;12.02;4.10;;;;;;;;;;5005589;28;20045;-76
2023/12/22 04:12:47;;;;;;;17.40;4.65;;;;;;;;;;5024153;28;20056;-76
2023/12/22 04:15:13;;;;;;;12.70;3.60;;;;;;;;;;5003126;28;20034;-76
2023/12/22 04:17:39;;;;;;;12.43;3.60;;;;;;;;;;5003401;28;20085;-76
2023/12/22 04:20:07;;;;;;;19.52;4.32;;;;;;;;;;5021373;28;20489;-76
2023/12/22 04:22:33;;;;;;;14.82;4.20;;;;;;;;;;5001818;28;20052;-76
2023/12/22 04:24:59;;;;;;;17.48;4.88;;;;;;;;;;5002323;28;20069;-76
2023/12/22 04:27:25;;;;;;;18.00;4.07;;;;;;;;;;5006653;28;20449;-77
2023/12/22 04:29:51;;;;;;;18.73;4.45;;;;;;;;;;5026554;28;20476;-76
2023/12/22 04:32:17;;;;;;;19.98;4.55;;;;;;;;;;5023128;28;20140;-76
2023/12/22 04:34:43;;;;;;;22.60;5.32;;;;;;;;;;5030374;28;20042;-76
2023/12/22 04:37:09;;;;;;;17.15;4.10;;;;;;;;;;5027826;28;20463;-76
2023/12/22 04:39:35;;;;;;;20.60;4.45;;;;;;;;;;5028257;28;20045;-76
2023/12/22 04:42:01;;;;;;;17.85;3.95;;;;;;;;;;5031770;28;20049;-76
2023/12/22 04:44:27;;;;;;;14.90;4.10;;;;;;;;;;5030012;28;20107;-76
2023/12/22 04:46:54;;;;;;;15.02;4.38;;;;;;;;;;5009452;28;20358;-76
2023/12/22 04:49:20;;;;;;;28.20;5.50;;;;;;;;;;5011123;28;20088;-76
2023/12/22 04:51:46;;;;;;;19.15;4.65;;;;;;;;;;5002095;28;20050;-76
2023/12/22 04:54:12;;;;;;;25.77;4.75;;;;;;;;;;5001630;28;20130;-76
2023/12/22 04:56:38;;;;;;;21.85;5.80;;;;;;;;;;4983297;28;20126;-76
2023/12/22 04:59:04;;;;;;;16.70;4.20;;;;;;;;;;4994292;28;20494;-76
2023/12/22 05:01:30;;;;;;;18.73;4.00;;;;;;;;;;4988782;28;20038;-77
2023/12/22 05:03:56;;;;;;;21.00;4.32;;;;;;;;;;4970980;28;20052;-76
2023/12/22 05:06:22;;;;;;;19.73;4.97;;;;;;;;;;5005354;28;20054;-76
2023/12/22 05:08:48;;;;;;;12.95;3.47;;;;;;;;;;4991544;28;20157;-76
2023/12/22 05:11:14;;;;;;;17.25;4.63;;;;;;;;;;4996637;28;20100;-76
2023/12/22 05:13:41;;;;;;;13.73;4.18;;;;;;;;;;4992989;28;20046;-77
2023/12/22 05:16:08;;;;;;;17.95;5.10;;;;;;;;;;5004415;28;20048;-76
2023/12/22 05:18:34;;;;;;;17.73;5.13;;;;;;;;;;4988980;28;20051;-76
2023/12/22 05:21:00;;;;;;;15.20;3.95;;;;;;;;;;5002497;28;20093;-76
2023/12/22 05:23:29;;;;;;;17.67;4.50;;;;;;;;;;4998939;28;20051;-76
2023/12/22 05:25:55;;;;;;;19.77;4.45;;;;;;;;;;4993733;28;20046;-76
2023/12/22 05:28:21;;;;;;;18.10;4.75;;;;;;;;;;4999853;28;20183;-76
2023/12/22 05:30:47;;;;;;;21.50;4.95;;;;;;;;;;4990496;28;20103;-76
2023/12/22 05:33:16;;;;;;;16.48;3.97;;;;;;;;;;4997379;28;20416;-76
2023/12/22 05:35:42;;;;;;;16.10;4.22;;;;;;;;;;4991323;28;20046;-76
2023/12/22 05:38:08;;;;;;;21.08;5.00;;;;;;;;;;4990940;28;20107;-76
2023/12/22 05:40:34;;;;;;;15.38;3.70;;;;;;;;;;5000586;28;20130;-76
2023/12/22 05:43:00;;;;;;;10.85;3.67;;;;;;;;;;4994209;28;20490;-77
2023/12/22 05:45:26;;;;;;;17.63;4.55;;;;;;;;;;4987259;28;20053;-76
2023/12/22 05:47:52;;;;;;;19.08;4.68;;;;;;;;;;4990842;28;20057;-76
2023/12/22 05:50:18;;;;;;;22.88;3.88;;;;;;;;;;4987530;28;20455;-76
2023/12/22 05:52:44;;;;;;;13.27;3.85;;;;;;;;;;5018439;28;20061;-77
2023/12/22 05:55:11;;;;;;;14.77;3.88;;;;;;;;;;5006462;28;20444;-76
2023/12/22 05:57:37;;;;;;;12.00;3.50;;;;;;;;;;5010119;28;20053;-76
2023/12/22 06:00:07;;;;;;;11.18;3.90;;;;;;;;;;5026780;28;20167;-76
2023/12/22 06:02:33;;;;;;;21.80;4.70;;;;;;;;;;5010311;28;20137;-76
2023/12/22 06:05:00;;;;;;;18.88;4.40;;;;;;;;;;5029884;28;20045;-76
2023/12/22 06:07:26;;;;;;;13.60;3.72;;;;;;;;;;5029355;28;20400;-76
2023/12/22 06:09:52;;;;;;;16.30;4.68;;;;;;;;;;5006975;28;20033;-76
2023/12/22 06:12:18;;;;;;;11.48;3.80;;;;;;;;;;5026623;28;20338;-76
2023/12/22 06:14:44;;;;;;;19.92;4.35;;;;;;;;;;5026062;28;20100;-77
2023/12/22 06:17:10;;;;;;;14.43;4.35;;;;;;;;;;5004472;28;20374;-77
2023/12/22 06:19:37;;;;;;;14.45;4.30;;;;;;;;;;5024403;28;20048;-76
2023/12/22 06:22:03;;;;;;;18.23;4.57;;;;;;;;;;5004730;28;20121;-77
2023/12/22 06:24:29;;;;;;;22.67;5.53;;;;;;;;;;5004401;28;20401;-77
2023/12/22 06:26:58;;;;;;;17.40;4.43;;;;;;;;;;5023883;28;20037;-76
2023/12/22 06:29:24;;;;;;;15.95;4.15;;;;;;;;;;5003372;28;20121;-76
2023/12/22 06:31:50;;;;;;;17.38;4.00;;;;;;;;;;5002828;28;20394;-77
2023/12/22 06:34:19;;;;;;;13.30;3.85;;;;;;;;;;5024158;28;20049;-77
2023/12/22 06:36:45;;;;;;;20.02;4.80;;;;;;;;;;5023289;28;20112;-76
2023/12/22 06:39:11;;;;;;;15.80;3.85;;;;;;;;;;5004401;28;20080;-76
2023/12/22 06:41:37;;;;;;;18.70;4.65;;;;;;;;;;5022378;28;20398;-76
2023/12/22 06:44:03;;;;;;;15.38;5.55;;;;;;;;;;5022469;28;20397;-77
2023/12/22 06:46:30;;;;;;;17.25;4.60;;;;;;;;;;5007270;28;20049;-77
2023/12/22 06:48:57;;;;;;;20.00;3.97;;;;;;;;;;5026519;28;20128;-76
2023/12/22 06:51:27;;;;;;;21.38;4.30;;;;;;;;;;5024495;28;20061;-76
2023/12/22 06:53:55;;;;;;;16.80;4.03;;;;;;;;;;5025445;28;20042;-76
2023/12/22 06:56:22;;;;;;;22.70;4.55;;;;;;;;;;5025623;28;20037;-76
2023/12/22 06:58:49;;;;;;;19.55;5.00;;;;;;;;;;5005750;28;20052;-76
2023/12/22 07:01:24;;;;;;;17.02;4.57;;;;;;;;;;5021289;28;20446;-76
2023/12/22 07:03:50;;;;;;;21.75;4.53;;;;;;;;;;5006107;28;20057;-76
2023/12/22 07:06:18;;;;;;;19.23;4.07;;;;;;;;;;5005184;28;20080;-76
2023/12/22 07:11:29;;;;;;;19.10;4.35;;;;;;;;;;5003809;28;20050;-76
2023/12/22 07:13:55;;;;;;;10.75;3.88;;;;;;;;;;5024433;28;20049;-77
2023/12/22 07:16:21;;;;;;;17.60;4.05;;;;;;;;;;5009151;28;20374;-76
2023/12/22 07:18:47;;;;;;;15.38;3.92;;;;;;;;;;5024151;28;20049;-76
2023/12/22 07:21:18;;;;;;;15.10;3.33;;;;;;;;;;5025245;28;20052;-76
2023/12/22 07:23:44;;;;;;;5.15;2.92;;;;;;;;;;5021054;28;20053;-76
2023/12/22 07:26:10;;;;;;;13.77;3.10;;;;;;;;;;5011102;28;20405;-76
2023/12/22 07:28:36;;;;;;;6.05;2.67;;;;;;;;;;5006077;28;20050;-76
2023/12/22 07:31:02;;;;;;;9.95;2.88;;;;;;;;;;5022766;28;20383;-76
2023/12/22 07:33:28;;;;;;;9.30;2.92;;;;;;;;;;5026916;28;20084;-76
2023/12/22 07:35:54;;;;;;;13.60;3.65;;;;;;;;;;5029786;28;20465;-76
2023/12/22 07:38:20;;;;;;;10.88;2.75;;;;;;;;;;5024480;28;20114;-76
2023/12/22 07:40:46;;;;;;;11.50;2.70;;;;;;;;;;5022844;28;20042;-76
2023/12/22 07:43:16;;;;;;;13.90;2.92;;;;;;;;;;5026968;28;20044;-76
2023/12/22 07:45:42;;;;;;;5.88;2.33;;;;;;;;;;5006571;28;20102;-76
2023/12/22 07:48:08;;;;;;;10.43;2.63;;;;;;;;;;5013383;28;20053;-76
2023/12/22 07:50:34;;;;;;;11.25;2.90;;;;;;;;;;5028843;28;20045;-76
2023/12/22 07:53:00;;;;;;;13.80;4.03;;;;;;;;;;5027670;28;20061;-75
2023/12/22 07:55:26;;;;;;;13.73;3.30;;;;;;;;;;5023668;28;20041;-76
2023/12/22 07:57:52;;;;;;;14.48;3.38;;;;;;;;;;4993802;28;20050;-76
2023/12/22 08:00:18;;;;;;;16.40;4.10;;;;;;;;;;5007716;28;20511;-75
2023/12/22 08:02:45;;;;;;;16.13;3.83;;;;;;;;;;5022304;28;20049;-76
2023/12/22 08:05:11;;;;;;;12.50;3.55;;;;;;;;;;5036813;28;20045;-76
2023/12/22 08:07:37;;;;;;;15.38;4.10;;;;;;;;;;5018225;22;20394;-77
2023/12/22 08:10:04;;;;;;;17.10;4.50;;;;;;;;;;5009267;28;20045;-76
2023/12/22 08:12:32;;;;;;;14.43;4.25;;;;;;;;;;5011061;28;20077;-77
2023/12/22 08:14:58;;;;;;;14.20;4.13;;;;;;;;;;5010561;28;21809;-76
2023/12/22 08:17:24;;;;;;;12.80;3.33;;;;;;;;;;5009914;28;20555;-76
2023/12/22 08:19:56;;;;;;;13.48;3.35;;;;;;;;;;5009322;28;20041;-82
2023/12/22 08:22:22;;;;;;;12.57;3.47;;;;;;;;;;5004635;28;20053;-76
2023/12/22 08:24:49;;;;;;;17.75;3.90;;;;;;;;;;5030741;28;20405;-76
2023/12/22 08:27:15;;;;;;;12.55;4.40;;;;;;;;;;5016179;28;20102;-76
2023/12/22 08:29:41;;;;;;;19.38;4.10;;;;;;;;;;5014471;28;20497;-76
2023/12/22 08:32:07;;;;;;;12.32;3.35;;;;;;;;;;5024444;28;20041;-76
2023/12/22 08:34:33;;;;;;;17.40;4.38;;;;;;;;;;5015044;28;20069;-76
2023/12/22 08:37:00;;;;;;;18.02;3.80;;;;;;;;;;5035062;28;20045;-76
2023/12/22 08:39:26;;;;;;;12.18;4.18;;;;;;;;;;5032424;28;20217;-76
2023/12/22 08:41:55;;;;;;;12.65;3.78;;;;;;;;;;5032569;28;20116;-76
2023/12/22 08:44:21;;;;;;;22.98;4.43;;;;;;;;;;5031884;28;20053;-76
2023/12/22 08:46:48;;;;;;;12.35;3.85;;;;;;;;;;5017407;28;20049;-76
2023/12/22 08:49:14;;;;;;;16.63;3.72;;;;;;;;;;5029782;28;20103;-76
2023/12/22 08:51:43;;;;;;;14.13;3.97;;;;;;;;;;5006430;28;20045;-76
2023/12/22 08:54:08;;;;;;;18.30;3.70;;;;;;;;;;5029183;28;20524;-76
2023/12/22 08:56:36;;;;;;;15.18;3.85;;;;;;;;;;5007161;28;20065;-76
2023/12/22 08:59:02;;;;;;;15.95;4.15;;;;;;;;;;5028216;28;20049;-76
2023/12/22 09:01:28;;;;;;;15.80;3.97;;;;;;;;;;5012747;28;20169;-76
2023/12/22 09:03:54;;;;;;;15.90;3.85;;;;;;;;;;5028905;28;20045;-76
2023/12/22 09:06:24;;;;;;;10.38;3.17;;;;;;;;;;5015391;28;20468;-76
2023/12/22 09:08:50;;;;;;;14.55;3.90;;;;;;;;;;5025998;28;20162;-76
2023/12/22 09:11:17;;;;;;;9.65;3.50;;;;;;;;;;5030625;28;20060;-76
2023/12/22 09:13:43;;;;;;;13.20;3.95;;;;;;;;;;5053052;28;20049;-76
2023/12/22 09:16:10;;;;;;;16.58;4.57;;;;;;;;;;5052785;28;20048;-76
2023/12/22 09:18:36;;;;;;;12.55;4.00;;;;;;;;;;5030371;28;20378;-76
2023/12/22 09:21:02;;;;;;;11.40;3.20;;;;;;;;;;5051212;28;20056;-76
2023/12/22 09:23:29;;;;;;;14.43;4.35;;;;;;;;;;5028971;28;20053;-76
2023/12/22 09:25:55;;;;;;;22.50;4.47;;;;;;;;;;5049733;28;20041;-76
2023/12/22 09:28:21;;;;;;;12.13;3.60;;;;;;;;;;5045800;28;20040;-76
2023/12/22 09:30:47;;;;;;;26.98;5.57;;;;;;;;;;5046521;28;20040;-76
2023/12/22 09:33:13;;;;;;;15.27;4.20;;;;;;;;;;5048383;28;20037;-76
2023/12/22 09:35:42;;;;;;;15.48;4.13;;;;;;;;;;5045581;28;20073;-76
2023/12/22 09:38:09;;;;;;;14.90;3.85;;;;;;;;;;5044713;28;20399;-76
2023/12/22 09:40:36;;;;;;;19.90;4.75;;;;;;;;;;5043707;28;20052;-76
2023/12/22 09:43:05;;;;;;;14.93;4.05;;;;;;;;;;5045626;28;20044;-76
2023/12/22 09:45:32;;;;;;;13.05;3.65;;;;;;;;;;5050038;28;20059;-76
2023/12/22 09:47:59;;;;;;;10.68;3.45;;;;;;;;;;5045105;28;20076;-76
2023/12/22 09:50:27;;;;;;;9.68;2.75;;;;;;;;;;5028603;28;20442;-76
2023/12/22 09:52:55;;;;;;;10.27;2.95;;;;;;;;;;5051098;28;20040;-76
2023/12/22 09:55:26;;;;;;;8.05;2.58;;;;;;;;;;5049766;28;20047;-76
2023/12/22 09:58:02;;;;;;;11.65;3.45;;;;;;;;;;5029457;28;20057;-76
2023/12/22 10:00:29;;;;;;;12.75;3.25;;;;;;;;;;5026085;28;20076;-75
2023/12/22 10:02:55;;;;;;;14.23;3.20;;;;;;;;;;5047667;28;20048;-76
2023/12/22 10:05:27;;;;;;;16.40;3.40;;;;;;;;;;5043511;28;20042;-76
2023/12/22 10:07:53;;;;;;;11.43;3.30;;;;;;;;;;5048591;28;20041;-76
2023/12/22 10:10:20;;;;;;;12.98;2.75;;;;;;;;;;5047395;28;20448;-76
2023/12/22 10:12:46;;;;;;;11.88;3.03;;;;;;;;;;5049896;28;20095;-76
2023/12/22 10:15:13;;;;;;;10.95;2.83;;;;;;;;;;5025621;28;20135;-76
2023/12/22 10:17:40;;;;;;;7.82;2.58;;;;;;;;;;5046012;28;20056;-76
2023/12/22 10:20:06;;;;;;;11.50;2.97;;;;;;;;;;5049317;28;20123;-76
2023/12/22 10:22:32;;;;;;;8.18;2.47;;;;;;;;;;5029811;28;20393;-76
2023/12/22 10:24:58;;;;;;;18.23;3.30;;;;;;;;;;5048106;28;20055;-76
2023/12/22 10:27:24;;;;;;;13.02;3.40;;;;;;;;;;5045457;28;20041;-76
2023/12/22 10:29:50;;;;;;;11.98;2.70;;;;;;;;;;5028286;28;20132;-76
2023/12/22 10:32:16;;;;;;;15.27;3.17;;;;;;;;;;5028161;28;20120;-76
2023/12/22 10:34:43;;;;;;;8.02;2.58;;;;;;;;;;5046850;28;20139;-76
2023/12/22 10:37:09;;;;;;;7.20;2.40;;;;;;;;;;5045152;28;20122;-76
2023/12/22 10:39:37;;;;;;;13.38;3.60;;;;;;;;;;5047062;28;20436;-76
2023/12/22 10:42:03;;;;;;;7.00;2.50;;;;;;;;;;5027774;28;20469;-75
2023/12/22 10:44:30;;;;;;;10.75;3.22;;;;;;;;;;5045530;28;20058;-76
2023/12/22 10:47:00;;;;;;;12.27;3.33;;;;;;;;;;5046142;28;20049;-76
2023/12/22 10:49:26;;;;;;;8.27;2.83;;;;;;;;;;5045500;28;20049;-76
2023/12/22 10:51:58;;;;;;;16.13;3.20;;;;;;;;;;5027173;28;20451;-76
2023/12/22 10:54:24;;;;;;;10.82;3.30;;;;;;;;;;5046660;28;20105;-76
2023/12/22 10:56:50;;;;;;;12.23;3.63;;;;;;;;;;5030069;28;20200;-76
2023/12/22 10:59:23;;;;;;;14.48;3.90;;;;;;;;;;5028577;28;20496;-75
2023/12/22 11:01:49;;;;;;;12.93;3.27;;;;;;;;;;5038206;28;20492;-76
2023/12/22 11:04:20;;;;;;;9.13;2.95;;;;;;;;;;5045213;28;20508;-76
2023/12/22 11:06:47;;;;;;;18.70;3.45;;;;;;;;;;5022164;28;20851;-76
2023/12/22 11:09:17;;;;;;;15.75;3.75;;;;;;;;;;5013114;28;21721;-76
2023/12/22 11:11:43;;;;;;;17.60;4.20;;;;;;;;;;5009285;28;20052;-76
2023/12/22 11:14:09;;;;;;;12.00;3.30;;;;;;;;;;5025516;28;20046;-76
2023/12/22 11:16:40;;;;;;;14.43;3.40;;;;;;;;;;5024475;28;20459;-76
2023/12/22 11:19:07;;;;;;;29.02;3.70;;;;;;;;;;5006252;28;20042;-76
2023/12/22 11:21:33;;;;;;;11.00;3.28;;;;;;;;;;5007458;28;20048;-76
2023/12/22 11:24:00;;;;;;;15.00;4.05;;;;;;;;;;5004445;28;20092;-76
2023/12/22 11:26:33;;;;;;;14.60;3.28;;;;;;;;;;5004430;28;20041;-76
2023/12/22 11:28:59;;;;;;;10.00;2.90;;;;;;;;;;5025211;28;20041;-76
2023/12/22 11:31:28;;;;;;;18.55;3.88;;;;;;;;;;5025969;28;20081;-76
2023/12/22 11:33:55;;;;;;;9.88;2.97;;;;;;;;;;5009362;28;20094;-76
2023/12/22 11:36:21;;;;;;;17.20;3.20;;;;;;;;;;5024235;28;20111;-76
2023/12/22 11:38:47;;;;;;;19.52;2.90;;;;;;;;;;5006362;28;20486;-76
2023/12/22 11:41:17;;;;;;;9.55;3.25;;;;;;;;;;5026380;28;20439;-76
2023/12/22 11:43:44;;;;;;;8.02;3.30;;;;;;;;;;5026693;28;20056;-76
2023/12/22 11:46:11;;;;;;;14.35;3.20;;;;;;;;;;5016506;28;20049;-76
2023/12/22 11:48:37;;;;;;;13.70;3.35;;;;;;;;;;5005744;28;20090;-76
2023/12/22 11:51:14;;;;;;;11.18;3.17;;;;;;;;;;5025068;28;20072;-76
2023/12/22 11:53:40;;;;;;;19.30;4.13;;;;;;;;;;5008089;28;20057;-76
2023/12/22 11:56:10;;;;;;;13.98;3.10;;;;;;;;;;5027359;28;20473;-76
2023/12/22 11:58:54;;;;;;;15.10;3.85;;;;;;;;;;5026844;28;20053;-76
2023/12/22 12:01:22;;;;;;;9.27;3.00;;;;;;;;;;5001012;28;20088;-76
2023/12/22 12:03:51;;;;;;;10.50;2.70;;;;;;;;;;5023996;28;20493;-76
2023/12/22 12:06:22;;;;;;;15.13;4.05;;;;;;;;;;5023731;28;20561;-76
2023/12/22 12:08:49;;;;;;;9.40;2.55;;;;;;;;;;5007733;28;20539;-76
2023/12/22 12:11:15;;;;;;;10.35;3.47;;;;;;;;;;5045545;28;20045;-76
2023/12/22 12:13:45;;;;;;;13.98;3.30;;;;;;;;;;5026238;28;20142;-76
2023/12/22 12:16:12;;;;;;;12.70;3.00;;;;;;;;;;5043056;28;20056;-76
2023/12/22 12:18:39;;;;;;;15.32;3.45;;;;;;;;;;5042691;28;20053;-76
2023/12/22 12:21:07;;;;;;;12.02;3.70;;;;;;;;;;5030042;28;20045;-76
2023/12/22 12:23:36;;;;;;;13.13;3.25;;;;;;;;;;5044317;28;20044;-76
2023/12/22 12:26:03;;;;;;;13.90;3.45;;;;;;;;;;5025606;28;20101;-76
2023/12/22 12:28:31;;;;;;;17.38;3.95;;;;;;;;;;5093209;22;20083;-76
2023/12/22 12:31:00;;;;;;;13.98;3.13;;;;;;;;;;5009630;28;20095;-76
2023/12/22 12:33:32;;;;;;;10.35;2.63;;;;;;;;;;5021937;28;20038;-76
2023/12/22 12:36:04;;;;;;;9.45;3.00;;;;;;;;;;5006092;28;20120;-76
2023/12/22 12:38:49;;;;;;;9.93;2.90;;;;;;;;;;5024323;28;20558;-76
2023/12/22 12:41:16;;;;;;;6.72;2.58;;;;;;;;;;5027008;28;20107;-76
2023/12/22 12:43:43;;;;;;;10.70;3.20;;;;;;;;;;5005616;28;20374;-77
2023/12/22 12:46:09;;;;;;;10.25;2.83;;;;;;;;;;5020116;28;20405;-77
2023/12/22 12:48:35;;;;;;;13.48;2.97;;;;;;;;;;5023330;28;20113;-77
2023/12/22 12:51:07;;;;;;;6.38;2.55;;;;;;;;;;5026632;28;20497;-77
2023/12/22 12:53:34;;;;;;;10.27;2.75;;;;;;;;;;5029166;28;20057;-77
2023/12/22 12:56:01;;;;;;;12.73;3.03;;;;;;;;;;5027464;28;20128;-77
2023/12/22 12:58:30;;;;;;;16.73;3.78;;;;;;;;;;5026112;28;20038;-78
2023/12/22 13:01:12;;;;;;;9.75;2.53;;;;;;;;;;5010832;28;20115;-78
2023/12/22 13:03:54;;;;;;;9.20;2.75;;;;;;;;;;5006951;28;20073;-78
2023/12/22 13:06:20;;;;;;;13.23;2.90;;;;;;;;;;5006845;28;20366;-79
2023/12/22 13:08:50;;;;;;;9.63;2.92;;;;;;;;;;5029264;28;20049;-78
2023/12/22 13:11:17;;;;;;;10.85;3.10;;;;;;;;;;5029377;28;20042;-78
2023/12/22 13:13:43;;;;;;;13.82;2.92;;;;;;;;;;5008141;28;20077;-78
2023/12/22 13:16:09;;;;;;;19.23;3.47;;;;;;;;;;5011421;28;20135;-78
2023/12/22 13:18:36;;;;;;;20.40;3.47;;;;;;;;;;5030113;23;20163;-78
2023/12/22 13:21:03;;;;;;;11.32;2.70;;;;;;;;;;5035895;28;20139;-78
2023/12/22 13:23:29;;;;;;;11.77;3.40;;;;;;;;;;5057493;22;20051;-79
2023/12/22 13:25:55;;;;;;;11.43;2.50;;;;;;;;;;5040864;28;20146;-78
2023/12/22 13:28:28;;;;;;;18.45;3.13;;;;;;;;;;5055039;28;20472;-78
2023/12/22 13:30:54;;;;;;;16.38;3.28;;;;;;;;;;5038436;28;20190;-78
2023/12/22 13:33:20;;;;;;;14.63;3.33;;;;;;;;;;5036412;28;20033;-77
2023/12/22 13:35:46;;;;;;;9.90;2.53;;;;;;;;;;5037927;28;20064;-78
2023/12/22 13:38:12;;;;;;;16.08;3.63;;;;;;;;;;5055483;28;20074;-78
2023/12/22 13:40:39;;;;;;;19.13;3.85;;;;;;;;;;5042936;28;20075;-77
2023/12/22 13:43:08;;;;;;;11.73;3.13;;;;;;;;;;5037625;28;20170;-78
2023/12/22 13:45:34;;;;;;;12.52;3.20;;;;;;;;;;5058413;28;20060;-78
2023/12/22 13:48:00;;;;;;;12.07;2.90;;;;;;;;;;5049350;28;20087;-78
2023/12/22 13:50:28;;;;;;;11.75;3.65;;;;;;;;;;5040527;28;20072;-78
2023/12/22 13:52:54;;;;;;;15.32;3.10;;;;;;;;;;5040131;28;20052;-78
2023/12/22 13:55:22;;;;;;;8.65;3.10;;;;;;;;;;5036402;28;20493;-78
2023/12/22 13:57:49;;;;;;;5.38;2.50;;;;;;;;;;5042887;28;20444;-78
2023/12/22 14:00:21;;;;;;;9.77;2.78;;;;;;;;;;5040087;28;20072;-77
2023/12/22 14:02:51;;;;;;;10.07;2.60;;;;;;;;;;5036187;28;20048;-78
2023/12/22 14:05:17;;;;;;;5.25;2.10;;;;;;;;;;5057264;28;20045;-78
2023/12/22 14:07:47;;;;;;;7.15;2.20;;;;;;;;;;5052854;28;20040;-78
2023/12/22 14:10:13;;;;;;;9.57;2.53;;;;;;;;;;5039981;28;20040;-78
2023/12/22 14:12:40;;;;;;;8.38;2.80;;;;;;;;;;5034836;28;20045;-78
2023/12/22 14:15:09;;;;;;;6.95;2.80;;;;;;;;;;5049726;28;20041;-79
2023/12/22 14:17:35;;;;;;;10.25;2.83;;;;;;;;;;5031988;28;20491;-79
2023/12/22 14:20:09;;;;;;;15.27;3.10;;;;;;;;;;5042268;28;20488;-78
2023/12/22 14:22:35;;;;;;;16.95;3.67;;;;;;;;;;5035711;28;20056;-78
2023/12/22 14:25:01;;;;;;;16.58;4.07;;;;;;;;;;5043661;28;20087;-78
2023/12/22 14:27:28;;;;;;;17.35;3.40;;;;;;;;;;5042194;28;20107;-78
2023/12/22 14:29:54;;;;;;;15.48;3.05;;;;;;;;;;5046387;28;20051;-78
2023/12/22 14:32:20;;;;;;;9.93;2.45;;;;;;;;;;5066228;28;20048;-78